createdAt,value
2023-05-19T00:03:54.821Z,8.40
2023-05-19T00:08:59.074Z,8.30
2023-05-19T00:14:03.262Z,8.30
2023-05-19T00:19:10.771Z,8.30
2023-05-19T00:24:14.280Z,8.30
2023-05-19T00:29:19.507Z,8.20
2023-05-19T00:34:22.828Z,8.20
2023-05-19T00:39:26.092Z,8.20
2023-05-19T00:44:29.331Z,8.20
2023-05-19T00:49:32.622Z,8.20
2023-05-19T00:54:36.671Z,8.20
2023-05-19T00:59:40.142Z,8.20
2023-05-19T01:04:45.341Z,8.20
2023-05-19T01:09:49.162Z,8.30
2023-05-19T01:14:52.552Z,8.30
2023-05-19T01:20:22.436Z,8.30
2023-05-19T01:26:01.293Z,8.40
2023-05-19T01:31:07.728Z,8.50
2023-05-19T01:36:12.773Z,8.60
2023-05-19T01:41:17.190Z,8.60
2023-05-19T01:46:21.731Z,8.70
2023-05-19T01:51:25.019Z,8.60
2023-05-19T01:56:50.207Z,8.60
2023-05-19T02:01:55.653Z,8.70
2023-05-19T02:07:26.222Z,8.70
2023-05-19T02:12:35.483Z,8.70
2023-05-19T02:17:51.245Z,8.70
2023-05-19T02:22:54.585Z,8.70
2023-05-19T02:27:59.575Z,8.70
2023-05-19T02:33:02.836Z,8.60
2023-05-19T02:38:06.252Z,8.50
2023-05-19T02:43:09.852Z,8.60
2023-05-19T02:48:13.559Z,8.50
2023-05-19T02:53:16.926Z,8.60
2023-05-19T02:58:20.778Z,8.50
2023-05-19T03:03:24.525Z,8.60
2023-05-19T03:08:28.214Z,8.50
2023-05-19T03:13:32.345Z,8.50
2023-05-19T03:18:36.609Z,8.50
2023-05-19T03:23:39.907Z,8.50
2023-05-19T03:28:43.261Z,8.50
2023-05-19T03:33:46.662Z,8.50
2023-05-19T03:38:50.513Z,8.50
2023-05-19T03:43:53.989Z,8.40
2023-05-19T03:48:57.327Z,8.60
2023-05-19T03:54:00.941Z,8.70
2023-05-19T03:59:06.638Z,8.80
2023-05-19T04:04:10.142Z,8.70
2023-05-19T04:09:14.994Z,8.80
2023-05-19T04:14:18.402Z,8.90
2023-05-19T04:19:21.835Z,8.90
2023-05-19T04:24:25.242Z,9.00
2023-05-19T04:29:29.978Z,8.90
2023-05-19T04:34:34.176Z,9.00
2023-05-19T04:39:40.753Z,9.00
2023-05-19T04:44:44.229Z,9.10
2023-05-19T04:49:47.705Z,9.20
2023-05-19T04:54:51.087Z,9.30
2023-05-19T05:00:00.466Z,9.40
2023-05-19T05:05:04.675Z,9.60
2023-05-19T05:10:08.686Z,9.90
2023-05-19T05:15:13.297Z,9.90
2023-05-19T05:20:16.962Z,9.90
2023-05-19T05:25:21.012Z,9.80
2023-05-19T05:30:24.645Z,9.90
2023-05-19T05:35:28.131Z,10.20
2023-05-19T05:40:31.796Z,10.50
2023-05-19T05:45:35.150Z,10.60
2023-05-19T05:50:38.907Z,10.80
2023-05-19T05:55:42.670Z,10.80
2023-05-19T06:00:48.266Z,10.80
2023-05-19T06:05:51.640Z,10.80
2023-05-19T06:10:55.137Z,10.90
2023-05-19T06:16:00.449Z,11.00
2023-05-19T06:21:05.159Z,11.20
2023-05-19T06:26:08.422Z,11.40
2023-05-19T06:31:11.845Z,11.50
2023-05-19T06:36:15.310Z,11.70
2023-05-19T06:41:18.787Z,11.80
2023-05-19T06:46:22.056Z,11.90
2023-05-19T06:51:25.385Z,11.90
2023-05-19T06:56:29.029Z,11.90
2023-05-19T07:01:32.339Z,12.00
2023-05-19T07:06:35.651Z,12.00
2023-05-19T07:11:38.889Z,11.90
2023-05-19T07:16:42.281Z,12.00
2023-05-19T07:21:48.794Z,12.00
2023-05-19T07:26:52.146Z,12.00
2023-05-19T07:31:58.370Z,12.10
2023-05-19T07:37:02.456Z,12.10
2023-05-19T07:42:05.997Z,12.10
2023-05-19T07:47:09.628Z,12.30
2023-05-19T07:52:13.426Z,12.40
2023-05-19T07:57:17.112Z,12.40
2023-05-19T08:02:20.481Z,12.40
2023-05-19T08:07:23.949Z,12.50
2023-05-19T08:12:27.132Z,12.50
2023-05-19T08:17:30.308Z,12.40
2023-05-19T08:22:33.613Z,12.40
2023-05-19T08:27:36.925Z,12.40
2023-05-19T08:32:40.608Z,12.50
2023-05-19T08:37:43.848Z,12.60
2023-05-19T08:42:47.909Z,12.70
2023-05-19T08:47:52.405Z,12.80
2023-05-19T08:53:33.356Z,12.90
2023-05-19T08:58:44.235Z,13.00
2023-05-19T09:03:50.437Z,13.10
2023-05-19T09:08:53.865Z,13.30
2023-05-19T09:13:56.978Z,13.40
2023-05-19T09:19:01.626Z,13.50
2023-05-19T09:24:06.801Z,13.60
2023-05-19T09:29:19.617Z,13.60
2023-05-19T09:34:25.288Z,13.80
2023-05-19T09:39:29.300Z,13.90
2023-05-19T09:44:33.475Z,14.00
2023-05-19T09:49:37.111Z,14.20
2023-05-19T09:54:41.080Z,14.30
2023-05-19T09:59:45.240Z,14.40
2023-05-19T10:04:49.211Z,14.40
2023-05-19T10:09:53.763Z,14.30
2023-05-19T10:14:58.427Z,14.20
2023-05-19T10:20:02.887Z,14.20
2023-05-19T10:25:07.541Z,14.10
2023-05-19T10:30:22.900Z,14.10
2023-05-19T10:35:59.999Z,14.10
2023-05-19T10:41:27.560Z,14.20
2023-05-19T10:46:31.543Z,14.10
2023-05-19T10:51:36.565Z,14.20
2023-05-19T10:56:42.883Z,14.00
2023-05-19T11:01:47.543Z,13.80
2023-05-19T11:06:52.580Z,13.80
2023-05-19T11:11:57.237Z,13.80
2023-05-19T11:17:01.410Z,13.60
2023-05-19T11:22:13.252Z,13.60
2023-05-19T11:27:20.605Z,13.40
2023-05-19T11:32:28.497Z,13.40
2023-05-19T11:37:35.495Z,13.40
2023-05-19T11:42:39.015Z,13.20
2023-05-19T11:48:00.122Z,13.10
2023-05-19T11:53:05.547Z,13.00
2023-05-19T11:58:09.435Z,13.00
2023-05-19T12:03:13.604Z,12.90
2023-05-19T12:08:20.367Z,13.00
2023-05-19T12:13:23.872Z,13.10
2023-05-19T12:18:32.431Z,13.10
2023-05-19T12:23:36.310Z,13.10
2023-05-19T12:28:39.867Z,12.90
2023-05-19T12:33:43.685Z,12.90
2023-05-19T12:38:49.115Z,12.70
2023-05-19T12:43:52.706Z,12.60
2023-05-19T12:49:01.546Z,12.50
2023-05-19T12:54:06.455Z,12.30
2023-05-19T12:59:12.090Z,12.30
2023-05-19T13:04:16.008Z,12.40
2023-05-19T13:09:19.990Z,12.50
2023-05-19T13:14:23.552Z,12.70
2023-05-19T13:19:26.931Z,12.70
2023-05-19T13:24:30.430Z,12.70
2023-05-19T13:29:34.314Z,12.70
2023-05-19T13:34:37.673Z,12.70
2023-05-19T13:39:41.245Z,12.80
2023-05-19T13:44:46.340Z,12.90
2023-05-19T13:49:49.733Z,12.90
2023-05-19T13:54:54.981Z,12.90
2023-05-19T14:00:06.066Z,12.90
2023-05-19T14:05:09.850Z,12.90
2023-05-19T14:10:13.361Z,12.80
2023-05-19T14:15:16.792Z,12.80
2023-05-19T14:20:20.253Z,12.70
2023-05-19T14:25:23.708Z,12.70
2023-05-19T14:30:27.478Z,12.80
2023-05-19T14:35:30.807Z,12.90
2023-05-19T14:40:38.589Z,13.00
2023-05-19T14:45:44.897Z,13.00
2023-05-19T14:50:51.110Z,13.00
2023-05-19T14:55:54.520Z,13.10
2023-05-19T15:01:01.140Z,13.20
2023-05-19T15:06:10.474Z,13.10
2023-05-19T15:11:14.005Z,13.00
2023-05-19T15:16:18.346Z,13.00
2023-05-19T15:21:22.048Z,12.90
2023-05-19T15:26:26.377Z,12.90
2023-05-19T15:31:31.180Z,12.90
2023-05-19T15:36:34.613Z,12.90
2023-05-19T15:41:37.938Z,12.90
2023-05-19T15:46:41.327Z,12.90
2023-05-19T15:51:45.522Z,12.80
2023-05-19T15:56:49.878Z,12.90
2023-05-19T16:01:53.404Z,12.90
2023-05-19T16:06:57.134Z,12.90
2023-05-19T16:12:00.590Z,12.80
2023-05-19T16:17:11.757Z,12.80
2023-05-19T16:22:15.080Z,12.80
2023-05-19T16:27:18.977Z,12.80
2023-05-19T16:32:22.325Z,12.80
2023-05-19T16:37:26.048Z,12.80
2023-05-19T16:42:29.220Z,12.80
2023-05-19T16:47:32.807Z,12.70
2023-05-19T16:52:36.489Z,12.80
2023-05-19T16:57:39.797Z,12.80
2023-05-19T17:02:43.213Z,12.80
2023-05-19T17:07:46.732Z,12.80
2023-05-19T17:12:51.421Z,12.80
2023-05-19T17:17:55.456Z,12.80
2023-05-19T17:22:59.936Z,12.70
2023-05-19T17:28:03.901Z,12.70
2023-05-19T17:33:08.461Z,12.60
2023-05-19T17:38:12.242Z,12.60
2023-05-19T17:43:15.889Z,12.50
2023-05-19T17:48:19.491Z,12.50
2023-05-19T17:53:23.196Z,12.40
2023-05-19T17:58:27.800Z,12.40
2023-05-19T18:03:31.936Z,12.40
2023-05-19T18:08:37.259Z,12.30
2023-05-19T18:13:40.840Z,12.20
2023-05-19T18:18:48.989Z,12.20
2023-05-19T18:23:52.515Z,12.10
2023-05-19T18:28:56.028Z,12.00
2023-05-19T18:33:59.801Z,12.00
2023-05-19T18:39:03.290Z,12.00
2023-05-19T18:44:08.424Z,12.00
2023-05-19T18:49:12.164Z,12.00
2023-05-19T18:54:15.639Z,12.00
2023-05-19T18:59:18.853Z,12.00
2023-05-19T19:04:23.019Z,12.00
2023-05-19T19:09:27.064Z,11.90
2023-05-19T19:14:30.520Z,11.90
2023-05-19T19:19:34.427Z,11.90
2023-05-19T19:24:37.978Z,11.80
2023-05-19T19:29:41.366Z,11.90
2023-05-19T19:34:45.619Z,11.90
2023-05-19T19:39:49.215Z,11.90
2023-05-19T19:44:56.453Z,11.90
2023-05-19T19:50:03.060Z,11.80
2023-05-19T19:55:07.498Z,11.80
2023-05-19T20:00:11.829Z,11.80
2023-05-19T20:05:15.878Z,11.60
2023-05-19T20:10:22.657Z,11.70
2023-05-19T20:15:27.611Z,11.60
2023-05-19T20:20:31.786Z,11.60
2023-05-19T20:25:54.476Z,11.60
2023-05-19T20:31:07.822Z,11.50
2023-05-19T20:36:11.478Z,11.40
2023-05-19T20:41:15.389Z,11.40
2023-05-19T20:46:18.659Z,11.50
2023-05-19T20:51:23.622Z,11.50
2023-05-19T20:56:28.514Z,11.40
2023-05-19T21:01:33.201Z,11.40
2023-05-19T21:06:37.469Z,11.40
2023-05-19T21:11:40.927Z,11.50
2023-05-19T21:16:44.547Z,11.40
2023-05-19T21:21:48.382Z,11.50
2023-05-19T21:26:51.910Z,11.40
2023-05-19T21:31:56.747Z,11.40
2023-05-19T21:37:00.407Z,11.40
2023-05-19T21:42:04.480Z,11.30
2023-05-19T21:47:07.685Z,11.30
2023-05-19T21:52:11.332Z,11.40
2023-05-19T21:57:14.622Z,11.40
2023-05-19T22:02:18.305Z,11.30
2023-05-19T22:07:27.163Z,11.40
2023-05-19T22:12:32.676Z,11.30
2023-05-19T22:17:36.166Z,11.30
2023-05-19T22:22:39.452Z,11.20
2023-05-19T22:27:42.869Z,11.40
2023-05-19T22:32:46.279Z,11.40
2023-05-19T22:37:49.487Z,11.40
2023-05-19T22:42:52.888Z,11.30
2023-05-19T22:47:56.461Z,11.30
2023-05-19T22:52:59.816Z,11.40
2023-05-19T22:58:03.350Z,11.40
2023-05-19T23:03:06.771Z,11.30
2023-05-19T23:08:10.167Z,11.40
2023-05-19T23:13:13.568Z,11.30
2023-05-19T23:18:16.834Z,11.30
2023-05-19T23:23:20.505Z,11.30
2023-05-19T23:28:23.836Z,11.30
2023-05-19T23:33:27.092Z,11.30
2023-05-19T23:38:30.431Z,11.30
2023-05-19T23:43:34.086Z,11.40
2023-05-19T23:48:37.531Z,11.30
2023-05-19T23:53:40.969Z,11.30
2023-05-19T23:58:44.504Z,11.30
